首页
METAR-TAF:

METAR-TAF

机场 :

Northolt, 英格兰

纬度: 51-33N, 经度: 000-25W, 海拔: 38米

当前天气观测

该预报发布于21分钟前的14:50 UTC
风速10节,风向西南
温度 17°C
湿度 82%
气压 998 hPa
能见度10公里或以上
少量云层高于1800英尺
散云层高于4000英尺
阴天层高于9000英尺

METAR: EGWU 231450Z 23010KT 9999 RA FEW018 SCT040 OVC090 17/14 Q0998 TEMPO 4000 SHRA SCT014 RMK BLU TEMPO GRN

时间: 16:11 (15:11 UTC)

预报

该预报发布于1小时和43分钟前的13:28 UTC
预报有效从23日的 15点(UTC)到 24日的 09点(UTC)
风速12节,风向西南
能见度10公里或以上
少量云层高于1800英尺
散云层高于4000英尺
短暂存在
从 23日的 15点(UTC)到 23日的 18点(UTC)
散云层高于2000英尺
几率 40% :
短暂存在
从 23日的 15点(UTC)到 23日的 18点(UTC)
能見度: 7000
阵雨
几率 30% :
短暂存在
从 23日的 15点(UTC)到 23日的 17点(UTC)
能見度: 3500
散云层高于1400英尺
多云层高于1800英尺
大雨
几率 30% :
短暂存在
从 23日的 18点(UTC)到 23日的 23点(UTC)
能見度: 4000
散云层高于1800英尺
阵雨
几率 30% :
短暂存在
从 24日的 04点(UTC)到 24日的 07点(UTC)
能見度: 4000
散云层高于1600英尺, 塔状积云.
大阵雨

TAF: EGWU 231328Z 2315/2409 22012KT 9999 FEW018 SCT040 TEMPO 2315/2318 SCT020 PROB40 TEMPO 2315/2318 7000 SHRA PROB30 TEMPO 2315/2317 3500 +RA SCT014 BKN018 PROB30 TEMPO 2318/2323 4000 SHRA SCT018 PROB30 TEMPO 2404/2407 4000 +SHRA SCT016TCU

超过4000个机场的气象观测和天气预报(METAR&TAF报告)。

可查询的气象台以黄色和红色小点在地图上表示。

将鼠标移到小点上方,可查看气象台名称。

然后点击查看天气观测和预报。

如需切换地图:点击带黑十字的绿色按钮放大地图;点击带横线的绿色按钮缩小地图;或者点击绿色箭头查看邻近地区的地图。


METAR-TAF: